createdAt,value
2023-03-18T00:00:01.110Z,8.1
2023-03-18T00:01:01.126Z,8.1
2023-03-18T00:02:01.125Z,8.1
2023-03-18T00:03:01.205Z,8.1
2023-03-18T00:04:00.888Z,8.1
2023-03-18T00:05:01.141Z,8.1
2023-03-18T00:06:01.544Z,8.1
2023-03-18T00:07:01.538Z,8.1
2023-03-18T00:08:02.140Z,8.1
2023-03-18T00:09:02.260Z,8.1
2023-03-18T00:10:01.408Z,8
2023-03-18T00:11:01.964Z,8
2023-03-18T00:12:02.112Z,8
2023-03-18T00:13:01.210Z,8
2023-03-18T00:14:02.427Z,8
2023-03-18T00:15:01.881Z,8
2023-03-18T00:16:02.196Z,8
2023-03-18T00:17:01.122Z,8
2023-03-18T00:18:01.141Z,8
2023-03-18T00:19:00.891Z,8
2023-03-18T00:20:01.187Z,8
2023-03-18T00:21:01.149Z,8
2023-03-18T00:22:01.163Z,8
2023-03-18T00:23:01.280Z,8
2023-03-18T00:24:01.620Z,8
2023-03-18T00:25:01.822Z,8
2023-03-18T00:26:01.083Z,8
2023-03-18T00:27:01.083Z,8
2023-03-18T00:28:01.092Z,8
2023-03-18T00:29:01.081Z,8
2023-03-18T00:30:01.106Z,8
2023-03-18T00:31:01.207Z,8
2023-03-18T00:32:01.218Z,8
2023-03-18T00:33:01.380Z,8
2023-03-18T00:34:01.504Z,7.9
2023-03-18T00:35:02.034Z,8
2023-03-18T00:36:01.193Z,7.9
2023-03-18T00:37:01.317Z,7.9
2023-03-18T00:38:01.155Z,8
2023-03-18T00:39:01.224Z,8
2023-03-18T00:40:01.222Z,8
2023-03-18T00:41:02.220Z,7.9
2023-03-18T00:42:01.085Z,8
2023-03-18T00:43:00.801Z,7.9
2023-03-18T00:44:00.466Z,8
2023-03-18T00:45:00.167Z,7.9
2023-03-18T00:45:59.909Z,7.9
2023-03-18T00:46:59.762Z,8
2023-03-18T00:48:01.807Z,8
2023-03-18T00:49:02.038Z,8
2023-03-18T00:50:01.250Z,8
2023-03-18T00:51:01.129Z,8
2023-03-18T00:52:02.081Z,7.9
2023-03-18T00:53:01.214Z,8
2023-03-18T00:54:01.732Z,7.9
2023-03-18T00:55:02.504Z,8
2023-03-18T00:56:01.651Z,8
2023-03-18T00:57:01.495Z,7.9
2023-03-18T00:58:01.426Z,7.9
2023-03-18T00:59:02.093Z,7.9
2023-03-18T01:00:01.194Z,8
2023-03-18T01:01:02.965Z,7.9
2023-03-18T01:02:00.837Z,7.9
2023-03-18T01:03:00.584Z,7.9
2023-03-18T01:04:00.290Z,7.9
2023-03-18T01:04:59.990Z,7.9
2023-03-18T01:06:04.407Z,7.9
2023-03-18T01:07:01.132Z,7.9
2023-03-18T01:08:01.514Z,7.9
2023-03-18T01:09:01.523Z,7.9
2023-03-18T01:10:01.524Z,7.9
2023-03-18T01:11:07.668Z,7.9
2023-03-18T01:12:01.150Z,7.9
2023-03-18T01:13:01.175Z,7.9
2023-03-18T01:14:01.230Z,7.9
2023-03-18T01:15:01.886Z,7.9
2023-03-18T01:16:11.130Z,7.9
2023-03-18T01:17:01.781Z,7.9
2023-03-18T01:18:01.130Z,7.9
2023-03-18T01:19:01.138Z,7.9
2023-03-18T01:20:01.117Z,7.9
2023-03-18T01:21:13.438Z,7.9
2023-03-18T01:22:01.126Z,7.9
2023-03-18T01:23:01.154Z,7.8
2023-03-18T01:24:01.090Z,7.9
2023-03-18T01:25:01.095Z,7.9
2023-03-18T01:26:15.718Z,7.8
2023-03-18T01:27:01.387Z,7.9
2023-03-18T01:28:02.077Z,7.9
2023-03-18T01:29:01.084Z,7.9
2023-03-18T01:30:01.786Z,7.9
2023-03-18T01:31:01.075Z,7.9
2023-03-18T01:32:01.108Z,7.9
2023-03-18T01:33:01.138Z,7.9
2023-03-18T01:34:01.050Z,7.9
2023-03-18T01:35:01.098Z,7.9
2023-03-18T01:36:01.432Z,7.9
2023-03-18T01:37:01.578Z,7.9
2023-03-18T01:38:01.264Z,7.9
2023-03-18T01:39:01.121Z,7.9
2023-03-18T01:40:01.144Z,7.9
2023-03-18T01:41:01.834Z,7.9
2023-03-18T01:42:01.557Z,7.9
2023-03-18T01:43:03.019Z,7.9
2023-03-18T01:44:01.473Z,7.9
2023-03-18T01:45:01.268Z,7.9
2023-03-18T01:46:01.516Z,7.9
2023-03-18T01:47:01.272Z,7.9
2023-03-18T01:48:02.376Z,7.9
2023-03-18T01:49:01.945Z,7.9
2023-03-18T01:50:01.088Z,7.9
2023-03-18T01:51:01.163Z,7.9
2023-03-18T01:52:01.751Z,7.9
2023-03-18T01:53:01.306Z,7.9
2023-03-18T01:54:02.257Z,7.9
2023-03-18T01:55:01.339Z,7.9
2023-03-18T01:56:01.054Z,7.9
2023-03-18T01:57:01.262Z,7.9
2023-03-18T01:58:01.448Z,7.8
2023-03-18T01:59:01.276Z,7.9
2023-03-18T02:00:01.558Z,7.9
2023-03-18T02:01:01.252Z,7.8
2023-03-18T02:02:01.303Z,7.8
2023-03-18T02:03:01.217Z,7.9
2023-03-18T02:04:01.863Z,7.9
2023-03-18T02:05:01.859Z,7.8
2023-03-18T02:06:01.084Z,7.8
2023-03-18T02:07:01.516Z,7.8
2023-03-18T02:08:02.655Z,7.8
2023-03-18T02:09:01.169Z,7.8
2023-03-18T02:10:01.125Z,7.8
2023-03-18T02:11:01.132Z,7.8
2023-03-18T02:12:01.601Z,7.8
2023-03-18T02:13:01.148Z,7.8
2023-03-18T02:14:02.490Z,7.8
2023-03-18T02:15:01.144Z,7.8
2023-03-18T02:16:01.162Z,7.9
2023-03-18T02:17:01.287Z,7.8
2023-03-18T02:18:01.496Z,7.8
2023-03-18T02:19:01.263Z,7.8
2023-03-18T02:20:02.103Z,7.8
2023-03-18T02:21:01.305Z,7.8
2023-03-18T02:22:01.088Z,7.9
2023-03-18T02:23:01.804Z,7.8
2023-03-18T02:24:01.381Z,7.8
2023-03-18T02:25:01.117Z,7.9
2023-03-18T02:26:01.151Z,7.8
2023-03-18T02:27:01.713Z,7.9
2023-03-18T02:28:01.283Z,7.8
2023-03-18T02:29:01.293Z,7.9
2023-03-18T02:30:01.044Z,7.9
2023-03-18T02:31:01.183Z,7.9
2023-03-18T02:32:01.564Z,7.9
2023-03-18T02:33:01.718Z,7.9
2023-03-18T02:34:01.882Z,7.9
2023-03-18T02:35:01.753Z,7.9
2023-03-18T02:36:01.402Z,8
2023-03-18T02:37:01.351Z,8
2023-03-18T02:38:01.578Z,8
2023-03-18T02:39:01.720Z,8
2023-03-18T02:40:01.235Z,8
2023-03-18T02:41:01.277Z,8
2023-03-18T02:42:03.959Z,7.9
2023-03-18T02:43:02.046Z,7.9
2023-03-18T02:44:00.930Z,7.9
2023-03-18T02:45:01.315Z,8
2023-03-18T02:46:02.087Z,7.9
2023-03-18T02:47:05.684Z,7.9
2023-03-18T02:48:01.302Z,8
2023-03-18T02:49:04.284Z,8
2023-03-18T02:50:01.369Z,8
2023-03-18T02:51:01.418Z,8
2023-03-18T02:52:09.751Z,8
2023-03-18T02:53:01.081Z,7.9
2023-03-18T02:54:00.923Z,7.9
2023-03-18T02:55:01.113Z,7.9
2023-03-18T02:56:01.101Z,7.9
2023-03-18T02:57:14.277Z,7.9
2023-03-18T02:58:01.128Z,7.9
2023-03-18T02:59:01.351Z,7.9
2023-03-18T03:00:01.292Z,7.9
2023-03-18T03:01:01.475Z,7.9
2023-03-18T03:02:16.928Z,7.9
2023-03-18T03:03:03.086Z,7.9
2023-03-18T03:04:01.065Z,7.9
2023-03-18T03:05:01.152Z,7.9
2023-03-18T03:06:01.601Z,7.9
2023-03-18T03:07:01.192Z,7.9
2023-03-18T03:08:01.909Z,7.9
2023-03-18T03:09:02.151Z,7.9
2023-03-18T03:10:01.121Z,7.8
2023-03-18T03:11:01.442Z,7.9
2023-03-18T03:12:01.192Z,7.9
2023-03-18T03:13:01.113Z,7.9
2023-03-18T03:14:01.122Z,7.9
2023-03-18T03:15:01.362Z,7.9
2023-03-18T03:16:02.116Z,7.9
2023-03-18T03:17:00.671Z,7.9
2023-03-18T03:18:00.465Z,7.9
2023-03-18T03:19:00.334Z,7.9
2023-03-18T03:20:00.120Z,7.9
2023-03-18T03:20:59.873Z,7.9
2023-03-18T03:21:59.609Z,7.8
2023-03-18T03:23:01.916Z,7.8
2023-03-18T03:24:01.744Z,7.8
2023-03-18T03:25:00.717Z,7.8
2023-03-18T03:26:00.517Z,7.8
2023-03-18T03:27:00.499Z,7.8
2023-03-18T03:28:00.155Z,7.9
2023-03-18T03:28:59.856Z,7.8
2023-03-18T03:30:02.315Z,7.9
2023-03-18T03:31:02.143Z,7.9
2023-03-18T03:32:01.367Z,7.9
2023-03-18T03:33:01.341Z,7.8
2023-03-18T03:34:01.477Z,7.9
2023-03-18T03:35:01.368Z,7.8
2023-03-18T03:36:02.075Z,7.9
2023-03-18T03:37:01.353Z,7.9
2023-03-18T03:38:01.616Z,7.9
2023-03-18T03:39:01.159Z,7.9
2023-03-18T03:40:01.286Z,7.9
2023-03-18T03:41:01.189Z,7.9
2023-03-18T03:42:01.239Z,7.9
2023-03-18T03:43:01.082Z,7.8
2023-03-18T03:44:01.081Z,7.9
2023-03-18T03:45:01.556Z,7.9
2023-03-18T03:46:01.245Z,7.9
2023-03-18T03:47:01.137Z,7.9
2023-03-18T03:48:01.535Z,7.9
2023-03-18T03:49:01.527Z,7.9
2023-03-18T03:50:01.173Z,7.9
2023-03-18T03:51:01.307Z,7.9
2023-03-18T03:52:01.131Z,7.9
2023-03-18T03:53:01.267Z,7.8
2023-03-18T03:54:01.137Z,7.9
2023-03-18T03:55:01.410Z,7.9
2023-03-18T03:56:01.637Z,7.9
2023-03-18T03:57:01.084Z,7.9
2023-03-18T03:58:01.142Z,7.9
2023-03-18T03:59:01.913Z,7.9
2023-03-18T04:00:02.247Z,7.9
2023-03-18T04:01:01.280Z,7.8
2023-03-18T04:02:01.877Z,7.9
2023-03-18T04:03:02.180Z,7.9
2023-03-18T04:04:01.139Z,7.9
2023-03-18T04:05:01.121Z,7.9
2023-03-18T04:06:01.388Z,7.9
2023-03-18T04:07:01.514Z,7.9
2023-03-18T04:08:03.055Z,7.9
2023-03-18T04:09:01.148Z,7.9
2023-03-18T04:10:01.172Z,7.9
2023-03-18T04:11:01.057Z,7.9
2023-03-18T04:12:01.351Z,7.9
2023-03-18T04:13:01.131Z,7.9
2023-03-18T04:14:01.209Z,7.9
2023-03-18T04:15:01.461Z,7.9
2023-03-18T04:16:01.204Z,7.9
2023-03-18T04:17:01.089Z,7.9
2023-03-18T04:18:01.199Z,7.9
2023-03-18T04:19:01.152Z,7.9
2023-03-18T04:20:01.346Z,8
2023-03-18T04:21:01.488Z,7.9
2023-03-18T04:22:01.517Z,7.9
2023-03-18T04:23:02.700Z,8
2023-03-18T04:24:01.084Z,8
2023-03-18T04:25:01.309Z,8
2023-03-18T04:26:01.203Z,8
2023-03-18T04:27:01.773Z,8
2023-03-18T04:28:05.814Z,8
2023-03-18T04:29:02.059Z,7.9
2023-03-18T04:30:01.563Z,7.9
2023-03-18T04:31:01.163Z,7.9
2023-03-18T04:32:01.064Z,7.9
2023-03-18T04:33:09.579Z,7.9
2023-03-18T04:34:00.762Z,7.9
2023-03-18T04:35:01.943Z,7.9
2023-03-18T04:36:02.025Z,8
2023-03-18T04:37:01.110Z,8
2023-03-18T04:38:11.858Z,8
2023-03-18T04:39:01.151Z,8
2023-03-18T04:40:02.599Z,8
2023-03-18T04:41:01.198Z,8
2023-03-18T04:42:01.758Z,8
2023-03-18T04:43:15.311Z,8
2023-03-18T04:44:01.362Z,8
2023-03-18T04:45:02.645Z,8
2023-03-18T04:46:01.294Z,8
2023-03-18T04:47:01.600Z,8
2023-03-18T04:48:16.890Z,8
2023-03-18T04:49:01.237Z,8
2023-03-18T04:50:02.011Z,8
2023-03-18T04:51:01.854Z,8
2023-03-18T04:52:01.930Z,8
2023-03-18T04:53:01.569Z,8
2023-03-18T04:54:02.127Z,8
2023-03-18T04:55:01.449Z,8
2023-03-18T04:56:01.577Z,7.9
2023-03-18T04:57:01.280Z,8
2023-03-18T04:58:01.040Z,8
2023-03-18T04:59:01.136Z,8
2023-03-18T05:00:01.066Z,7.9
2023-03-18T05:01:01.747Z,8
2023-03-18T05:02:01.313Z,8
2023-03-18T05:03:01.951Z,8
2023-03-18T05:04:01.146Z,7.9
2023-03-18T05:05:01.517Z,7.9
2023-03-18T05:06:01.104Z,8
2023-03-18T05:07:01.096Z,8
2023-03-18T05:08:01.206Z,8
2023-03-18T05:09:01.124Z,7.9
2023-03-18T05:10:01.136Z,7.9
2023-03-18T05:11:01.073Z,7.9
2023-03-18T05:12:01.072Z,7.9
2023-03-18T05:13:01.146Z,7.9
2023-03-18T05:14:01.483Z,7.9
2023-03-18T05:15:01.536Z,7.9
2023-03-18T05:16:01.945Z,7.9
2023-03-18T05:17:01.222Z,7.9
2023-03-18T05:18:00.896Z,7.9
2023-03-18T05:19:00.476Z,7.9
2023-03-18T05:20:00.041Z,7.9
2023-03-18T05:20:59.936Z,7.9
2023-03-18T05:21:59.558Z,7.9
2023-03-18T05:23:01.797Z,7.9
2023-03-18T05:24:01.278Z,7.9
2023-03-18T05:25:02.313Z,7.9
2023-03-18T05:26:01.505Z,8
2023-03-18T05:27:01.119Z,8
2023-03-18T05:28:01.220Z,8
2023-03-18T05:29:01.144Z,8
2023-03-18T05:30:01.322Z,8
2023-03-18T05:31:02.041Z,8
2023-03-18T05:32:01.232Z,8
2023-03-18T05:33:01.509Z,8
2023-03-18T05:34:01.438Z,8
2023-03-18T05:35:01.114Z,8
2023-03-18T05:36:00.997Z,8
2023-03-18T05:37:00.703Z,8
2023-03-18T05:38:00.424Z,8
2023-03-18T05:39:00.162Z,8
2023-03-18T05:40:00.090Z,8
2023-03-18T05:40:59.905Z,8
2023-03-18T05:41:59.567Z,8.1
2023-03-18T05:43:01.139Z,8.1
2023-03-18T05:44:01.312Z,8
2023-03-18T05:45:00.720Z,8
2023-03-18T05:46:00.309Z,8.1
2023-03-18T05:46:59.908Z,8
2023-03-18T05:47:59.658Z,8
2023-03-18T05:49:01.441Z,8
2023-03-18T05:50:01.159Z,8.1
2023-03-18T05:51:01.326Z,8.1
2023-03-18T05:52:01.055Z,8.1
2023-03-18T05:53:01.103Z,8.1
2023-03-18T05:54:04.090Z,8.1
2023-03-18T05:55:01.120Z,8.1
2023-03-18T05:56:01.108Z,8.1
2023-03-18T05:57:01.108Z,8.1
2023-03-18T05:58:00.812Z,8.1
2023-03-18T05:59:01.122Z,8.1
2023-03-18T06:00:01.300Z,8.1
2023-03-18T06:01:01.212Z,8.1
2023-03-18T06:02:01.246Z,8.1
2023-03-18T06:03:01.702Z,8.2
2023-03-18T06:04:01.047Z,8.2
2023-03-18T06:05:01.565Z,8.2
2023-03-18T06:06:02.384Z,8.2
2023-03-18T06:07:04.028Z,8.2
2023-03-18T06:08:02.829Z,8.2
2023-03-18T06:09:03.705Z,8.2
2023-03-18T06:10:01.865Z,8.2
2023-03-18T06:11:01.528Z,8.2
2023-03-18T06:12:01.460Z,8.2
2023-03-18T06:13:01.136Z,8.3
2023-03-18T06:14:08.440Z,8.3
2023-03-18T06:15:01.297Z,8.3
2023-03-18T06:16:01.539Z,8.3
2023-03-18T06:17:01.285Z,8.3
2023-03-18T06:18:00.933Z,8.2
2023-03-18T06:19:13.428Z,8.3
2023-03-18T06:20:01.053Z,8.3
2023-03-18T06:21:01.170Z,8.3
2023-03-18T06:22:01.067Z,8.3
2023-03-18T06:23:01.067Z,8.3
2023-03-18T06:24:16.522Z,8.3
2023-03-18T06:25:01.151Z,8.3
2023-03-18T06:26:01.321Z,8.3
2023-03-18T06:27:01.042Z,8.3
2023-03-18T06:28:01.117Z,8.3
2023-03-18T06:29:00.846Z,8.3
2023-03-18T06:30:01.152Z,8.3
2023-03-18T06:31:01.960Z,8.3
2023-03-18T06:32:01.384Z,8.3
2023-03-18T06:33:01.394Z,8.3
2023-03-18T06:34:01.698Z,8.3
2023-03-18T06:35:01.207Z,8.3
2023-03-18T06:36:01.309Z,8.3
2023-03-18T06:37:01.075Z,8.3
2023-03-18T06:38:00.850Z,8.3
2023-03-18T06:39:00.576Z,8.3
2023-03-18T06:40:00.258Z,8.3
2023-03-18T06:40:59.819Z,8.3
2023-03-18T06:42:01.491Z,8.4
2023-03-18T06:43:02.223Z,8.4
2023-03-18T06:44:01.123Z,8.4
2023-03-18T06:45:01.109Z,8.4
2023-03-18T06:46:01.157Z,8.4
2023-03-18T06:47:01.113Z,8.5
2023-03-18T06:48:01.149Z,8.5
2023-03-18T06:49:00.812Z,8.5
2023-03-18T06:50:00.556Z,8.5
2023-03-18T06:51:01.431Z,8.5
2023-03-18T06:52:01.550Z,8.5
2023-03-18T06:53:01.067Z,8.5
2023-03-18T06:54:01.126Z,8.6
2023-03-18T06:55:01.091Z,8.6
2023-03-18T06:56:01.093Z,8.6
2023-03-18T06:57:01.298Z,8.6
2023-03-18T06:58:00.728Z,8.7
2023-03-18T06:59:00.499Z,8.8
2023-03-18T07:00:00.203Z,8.8
2023-03-18T07:01:00.240Z,8.8
2023-03-18T07:02:00.008Z,8.8
2023-03-18T07:02:59.682Z,8.9
2023-03-18T07:04:02.215Z,8.9
2023-03-18T07:05:01.374Z,9
2023-03-18T07:06:01.086Z,9
2023-03-18T07:07:00.769Z,9
2023-03-18T07:08:00.445Z,9
2023-03-18T07:09:00.024Z,9
2023-03-18T07:09:59.625Z,9
2023-03-18T07:11:01.456Z,9.1
2023-03-18T07:12:01.116Z,9.1
2023-03-18T07:13:01.085Z,9.1
2023-03-18T07:14:01.913Z,9.1
2023-03-18T07:15:01.432Z,9.2
2023-03-18T07:16:01.171Z,9.2
2023-03-18T07:17:01.150Z,9.2
2023-03-18T07:18:00.661Z,9.3
2023-03-18T07:19:00.292Z,9.3
2023-03-18T07:19:59.899Z,9.3
2023-03-18T07:20:59.592Z,9.4
2023-03-18T07:22:01.713Z,9.5
2023-03-18T07:23:01.347Z,9.5
2023-03-18T07:24:01.159Z,9.6
2023-03-18T07:25:00.830Z,9.6
2023-03-18T07:26:00.673Z,9.7
2023-03-18T07:27:00.454Z,9.7
2023-03-18T07:28:00.125Z,9.8
2023-03-18T07:28:59.689Z,9.8
2023-03-18T07:30:01.799Z,9.8
2023-03-18T07:31:01.797Z,9.9
2023-03-18T07:32:01.268Z,9.9
2023-03-18T07:33:01.496Z,9.9
2023-03-18T07:34:01.119Z,9.9
2023-03-18T07:35:01.398Z,9.9
2023-03-18T07:36:01.469Z,9.9
2023-03-18T07:37:01.247Z,9.9
2023-03-18T07:38:00.713Z,10
2023-03-18T07:39:00.503Z,10
2023-03-18T07:40:00.234Z,10
2023-03-18T07:40:59.928Z,10.1
2023-03-18T07:41:59.585Z,10.1
2023-03-18T07:43:01.371Z,10.1
2023-03-18T07:44:01.692Z,10
2023-03-18T07:45:03.031Z,10.1
2023-03-18T07:46:01.285Z,10.1
2023-03-18T07:47:02.083Z,10.1
2023-03-18T07:48:00.996Z,10.2
2023-03-18T07:49:00.683Z,10.1
2023-03-18T07:50:06.034Z,10.1
2023-03-18T07:51:01.498Z,10.1
2023-03-18T07:52:01.445Z,10.1
2023-03-18T07:53:02.423Z,10.1
2023-03-18T07:54:01.429Z,10.1
2023-03-18T07:55:08.774Z,10.2
2023-03-18T07:56:01.399Z,10.2
2023-03-18T07:57:00.955Z,10.3
2023-03-18T07:58:00.773Z,10.3
2023-03-18T07:59:01.444Z,10.3
2023-03-18T08:00:11.092Z,10.2
2023-03-18T08:01:01.536Z,10.3
2023-03-18T08:02:02.035Z,10.3
2023-03-18T08:03:01.318Z,10.3
2023-03-18T08:04:01.534Z,10.3
2023-03-18T08:05:14.688Z,10.4
2023-03-18T08:06:01.233Z,10.4
2023-03-18T08:07:01.111Z,10.4
2023-03-18T08:08:01.471Z,10.4
2023-03-18T08:09:01.144Z,10.5
2023-03-18T08:10:01.136Z,10.5
2023-03-18T08:11:01.235Z,10.5
2023-03-18T08:12:01.138Z,10.5
2023-03-18T08:13:01.151Z,10.5
2023-03-18T08:14:01.381Z,10.5
2023-03-18T08:15:01.087Z,10.5
2023-03-18T08:16:01.391Z,10.5
2023-03-18T08:17:01.379Z,10.5
2023-03-18T08:18:00.457Z,10.4
2023-03-18T08:19:00.151Z,10.4
2023-03-18T08:19:59.750Z,10.4
2023-03-18T08:21:01.894Z,10.5
2023-03-18T08:22:01.273Z,10.5
2023-03-18T08:23:01.130Z,10.5
2023-03-18T08:24:01.109Z,10.5
2023-03-18T08:25:01.257Z,10.5
2023-03-18T08:26:01.131Z,10.5
2023-03-18T08:27:01.160Z,10.6
2023-03-18T08:28:01.604Z,10.6
2023-03-18T08:29:01.395Z,10.7
2023-03-18T08:30:03.471Z,10.7
2023-03-18T08:31:01.082Z,10.7
2023-03-18T08:32:01.082Z,10.7
2023-03-18T08:33:01.158Z,10.8
2023-03-18T08:34:01.101Z,10.7
2023-03-18T08:35:01.202Z,10.7
2023-03-18T08:36:01.451Z,10.7
2023-03-18T08:37:02.011Z,10.7
2023-03-18T08:38:01.117Z,10.7
2023-03-18T08:39:01.160Z,10.8
2023-03-18T08:40:01.540Z,10.8
2023-03-18T08:41:01.159Z,10.8
2023-03-18T08:42:01.127Z,10.8
2023-03-18T08:43:01.150Z,10.8
2023-03-18T08:44:01.211Z,10.9
2023-03-18T08:45:01.245Z,10.9
2023-03-18T08:46:01.085Z,10.9
2023-03-18T08:47:01.079Z,10.9
2023-03-18T08:48:01.073Z,11
2023-03-18T08:49:01.073Z,11
2023-03-18T08:50:01.142Z,11
2023-03-18T08:51:01.084Z,11
2023-03-18T08:52:01.088Z,11
2023-03-18T08:53:01.096Z,11.1
2023-03-18T08:54:01.117Z,11.1
2023-03-18T08:55:01.351Z,11.1
2023-03-18T08:56:02.906Z,11.1
2023-03-18T08:57:01.138Z,11.2
2023-03-18T08:58:01.051Z,11.1
2023-03-18T08:59:01.396Z,11.1
2023-03-18T09:00:01.220Z,11.1
2023-03-18T09:01:01.278Z,11.1
2023-03-18T09:02:01.472Z,11.2
2023-03-18T09:03:02.745Z,11.2
2023-03-18T09:04:02.702Z,11.2
2023-03-18T09:05:02.389Z,11.2
2023-03-18T09:06:01.760Z,11.2
2023-03-18T09:07:01.084Z,11.2
2023-03-18T09:08:01.147Z,11.3
2023-03-18T09:09:01.103Z,11.3
2023-03-18T09:10:01.160Z,11.3
2023-03-18T09:11:01.115Z,11.3
2023-03-18T09:12:01.383Z,11.3
2023-03-18T09:13:01.122Z,11.3
2023-03-18T09:14:01.459Z,11.3
2023-03-18T09:15:01.417Z,11.3
2023-03-18T09:16:02.474Z,11.3
2023-03-18T09:17:01.469Z,11.3
2023-03-18T09:18:11.074Z,11.3
2023-03-18T09:19:01.260Z,11.3
2023-03-18T09:20:01.896Z,11.4
2023-03-18T09:21:01.879Z,11.4
2023-03-18T09:22:02.524Z,11.5
2023-03-18T09:23:01.750Z,11.5
2023-03-18T09:24:01.393Z,11.5
2023-03-18T09:25:01.660Z,11.5
2023-03-18T09:26:02.720Z,11.5
2023-03-18T09:27:01.134Z,11.6
2023-03-18T09:28:01.386Z,11.6
2023-03-18T09:29:01.410Z,11.6
2023-03-18T09:30:01.679Z,11.6
2023-03-18T09:31:06.873Z,11.7
2023-03-18T09:32:01.432Z,11.7
2023-03-18T09:33:01.436Z,11.7
2023-03-18T09:34:00.781Z,11.7
2023-03-18T09:35:00.364Z,11.7
2023-03-18T09:36:08.657Z,11.8
2023-03-18T09:37:01.061Z,11.8
2023-03-18T09:38:01.090Z,11.8
2023-03-18T09:39:00.764Z,11.9
2023-03-18T09:40:00.486Z,11.9
2023-03-18T09:41:11.746Z,11.9
2023-03-18T09:42:01.812Z,11.9
2023-03-18T09:43:02.321Z,12
2023-03-18T09:44:01.522Z,12
2023-03-18T09:45:02.388Z,12
2023-03-18T09:46:14.222Z,12
2023-03-18T09:47:01.605Z,12
2023-03-18T09:48:01.139Z,12
2023-03-18T09:49:01.158Z,12
2023-03-18T09:50:01.413Z,12.1
2023-03-18T09:51:19.113Z,12.2
2023-03-18T09:52:01.507Z,12.2
2023-03-18T09:53:02.089Z,12.3
2023-03-18T09:54:01.221Z,12.2
2023-03-18T09:55:01.414Z,12.3
2023-03-18T09:56:01.187Z,12.3
2023-03-18T09:57:01.545Z,12.3
2023-03-18T09:58:01.737Z,12.3
2023-03-18T09:59:01.596Z,12.3
2023-03-18T10:00:01.250Z,12.3
2023-03-18T10:01:01.091Z,12.3
2023-03-18T10:02:02.176Z,12.3
2023-03-18T10:03:05.128Z,12.3
2023-03-18T10:04:01.444Z,12.3
2023-03-18T10:05:01.572Z,12.3
2023-03-18T10:06:01.384Z,12.2
2023-03-18T10:07:01.062Z,12.3
2023-03-18T10:08:01.065Z,12.3
2023-03-18T10:09:01.422Z,12.3
2023-03-18T10:10:01.638Z,12.3
2023-03-18T10:11:01.253Z,12.3
2023-03-18T10:12:01.099Z,12.4
2023-03-18T10:13:01.225Z,12.4
2023-03-18T10:14:02.162Z,12.4
2023-03-18T10:15:01.624Z,12.4
2023-03-18T10:16:01.431Z,12.4
2023-03-18T10:17:01.557Z,12.4
2023-03-18T10:18:01.129Z,12.4
2023-03-18T10:19:00.839Z,12.4
2023-03-18T10:20:01.156Z,12.5
2023-03-18T10:21:01.452Z,12.4
2023-03-18T10:22:02.166Z,12.5
2023-03-18T10:23:01.150Z,12.5
2023-03-18T10:24:01.066Z,12.5
2023-03-18T10:25:01.167Z,12.5
2023-03-18T10:26:01.206Z,12.5
2023-03-18T10:27:01.383Z,12.5
2023-03-18T10:28:01.894Z,12.6
2023-03-18T10:29:01.499Z,12.6
2023-03-18T10:30:01.122Z,12.6
2023-03-18T10:31:01.239Z,12.6
2023-03-18T10:32:01.155Z,12.6
2023-03-18T10:33:01.626Z,12.6
2023-03-18T10:34:01.140Z,12.7
2023-03-18T10:35:01.148Z,12.8
2023-03-18T10:36:01.202Z,12.8
2023-03-18T10:37:01.756Z,12.8
2023-03-18T10:38:01.156Z,12.9
2023-03-18T10:39:00.856Z,13
2023-03-18T10:40:01.076Z,13
2023-03-18T10:41:01.333Z,13
2023-03-18T10:42:01.122Z,13
2023-03-18T10:43:01.506Z,13.1
2023-03-18T10:44:01.101Z,13.1
2023-03-18T10:45:01.119Z,13.1
2023-03-18T10:46:01.181Z,13.1
2023-03-18T10:47:01.337Z,13.2
2023-03-18T10:48:01.547Z,13.1
2023-03-18T10:49:01.386Z,13.2
2023-03-18T10:50:01.511Z,13.2
2023-03-18T10:51:02.162Z,13.2
2023-03-18T10:52:01.237Z,13.1
2023-03-18T10:53:01.263Z,13.1
2023-03-18T10:54:01.680Z,13.1
2023-03-18T10:55:01.429Z,13.1
2023-03-18T10:56:02.639Z,13.1
2023-03-18T10:57:01.139Z,13.1
2023-03-18T10:58:01.492Z,13.1
2023-03-18T10:59:00.913Z,13.1
2023-03-18T11:00:01.184Z,13.1
2023-03-18T11:01:01.539Z,13.1
2023-03-18T11:02:01.399Z,13.1
2023-03-18T11:03:02.215Z,13.1
2023-03-18T11:04:02.861Z,13.1
2023-03-18T11:05:02.035Z,13.1
2023-03-18T11:06:03.046Z,13.1
2023-03-18T11:07:01.322Z,13.1
2023-03-18T11:08:01.225Z,13.1
2023-03-18T11:09:01.179Z,13.1
2023-03-18T11:10:00.849Z,13.2
2023-03-18T11:11:00.557Z,13.2
2023-03-18T11:12:01.503Z,13.2
2023-03-18T11:13:01.487Z,13.2
2023-03-18T11:14:02.028Z,13.3
2023-03-18T11:15:02.225Z,13.3
2023-03-18T11:16:01.183Z,13.3
2023-03-18T11:17:04.602Z,13.3
2023-03-18T11:18:01.139Z,13.3
2023-03-18T11:19:01.888Z,13.3
2023-03-18T11:20:01.730Z,13.4
2023-03-18T11:21:02.599Z,13.4
2023-03-18T11:22:07.669Z,13.5
2023-03-18T11:23:01.802Z,13.5
2023-03-18T11:24:01.338Z,13.5
2023-03-18T11:25:02.027Z,13.5
2023-03-18T11:26:01.186Z,13.6
2023-03-18T11:27:10.506Z,13.6
2023-03-18T11:28:01.461Z,13.6
2023-03-18T11:29:01.130Z,13.6
2023-03-18T11:30:01.112Z,13.6
2023-03-18T11:31:01.157Z,13.6
2023-03-18T11:32:13.646Z,13.6
2023-03-18T11:33:01.395Z,13.6
2023-03-18T11:34:01.621Z,13.6
2023-03-18T11:35:01.365Z,13.6
2023-03-18T11:36:01.771Z,13.6
2023-03-18T11:37:16.875Z,13.6
2023-03-18T11:38:01.128Z,13.6
2023-03-18T11:39:01.146Z,13.6
2023-03-18T11:40:01.382Z,13.6
2023-03-18T11:41:01.156Z,13.7
2023-03-18T11:42:01.231Z,13.6
2023-03-18T11:43:01.185Z,13.7
2023-03-18T11:44:01.107Z,13.7
2023-03-18T11:45:01.754Z,13.8
2023-03-18T11:46:01.089Z,13.8
2023-03-18T11:47:01.245Z,13.8
2023-03-18T11:48:01.086Z,13.8
2023-03-18T11:49:01.110Z,13.8
2023-03-18T11:50:01.110Z,13.8
2023-03-18T11:51:01.146Z,13.8
2023-03-18T11:52:01.142Z,13.8
2023-03-18T11:53:01.437Z,13.8
2023-03-18T11:54:01.129Z,13.8
2023-03-18T11:55:01.764Z,13.8
2023-03-18T11:56:01.152Z,13.8
2023-03-18T11:57:01.176Z,13.8
2023-03-18T11:58:01.298Z,13.8
2023-03-18T11:59:01.466Z,13.8
2023-03-18T12:00:01.987Z,13.8
2023-03-18T12:01:02.150Z,13.9
2023-03-18T12:02:01.262Z,13.9
2023-03-18T12:03:01.142Z,13.9
2023-03-18T12:04:01.998Z,14
2023-03-18T12:05:01.751Z,14
2023-03-18T12:06:01.568Z,14
2023-03-18T12:07:01.235Z,14
2023-03-18T12:08:02.326Z,14
2023-03-18T12:09:01.960Z,14
2023-03-18T12:10:01.136Z,14
2023-03-18T12:11:01.153Z,14.1
2023-03-18T12:12:01.168Z,14.1
2023-03-18T12:13:01.180Z,14.1
2023-03-18T12:14:01.195Z,14.1
2023-03-18T12:15:02.418Z,14.1
2023-03-18T12:16:02.647Z,14.1
2023-03-18T12:17:01.156Z,14.1
2023-03-18T12:18:01.078Z,14.1
2023-03-18T12:19:01.105Z,14.2
2023-03-18T12:20:01.409Z,14.3
2023-03-18T12:21:01.107Z,14.3
2023-03-18T12:22:01.160Z,14.3
2023-03-18T12:23:06.557Z,14.3
2023-03-18T12:24:01.131Z,14.4
2023-03-18T12:25:01.137Z,14.3
2023-03-18T12:26:01.155Z,14.4
2023-03-18T12:27:01.058Z,14.4
2023-03-18T12:28:01.156Z,14.4
2023-03-18T12:29:01.840Z,14.4
2023-03-18T12:30:02.294Z,14.4
2023-03-18T12:31:01.121Z,14.4
2023-03-18T12:32:01.321Z,14.4
2023-03-18T12:33:01.087Z,14.4
2023-03-18T12:34:01.824Z,14.4
2023-03-18T12:35:01.784Z,14.4
2023-03-18T12:36:01.876Z,14.4
2023-03-18T12:37:01.116Z,14.4
2023-03-18T12:38:01.266Z,14.4
2023-03-18T12:39:01.621Z,14.3
2023-03-18T12:40:01.276Z,14.4
2023-03-18T12:41:02.121Z,14.3
2023-03-18T12:42:01.210Z,14.3
2023-03-18T12:43:01.053Z,14.3
2023-03-18T12:44:01.152Z,14.3
2023-03-18T12:45:01.187Z,14.3
2023-03-18T12:46:02.756Z,14.3
2023-03-18T12:47:01.103Z,14.4
2023-03-18T12:48:01.211Z,14.4
2023-03-18T12:49:01.251Z,14.4
2023-03-18T12:50:02.155Z,14.4
2023-03-18T12:51:02.152Z,14.5
2023-03-18T12:52:01.047Z,14.5
2023-03-18T12:53:03.734Z,14.5
2023-03-18T12:54:01.796Z,14.5
2023-03-18T12:55:01.407Z,14.5
2023-03-18T12:56:01.588Z,14.5
2023-03-18T12:57:01.433Z,14.5
2023-03-18T12:58:06.966Z,14.6
2023-03-18T12:59:01.157Z,14.6
2023-03-18T13:00:01.158Z,14.6
2023-03-18T13:01:02.909Z,14.6
2023-03-18T13:02:01.229Z,14.6
2023-03-18T13:03:08.456Z,14.6
2023-03-18T13:04:01.068Z,14.6
2023-03-18T13:05:01.072Z,14.6
2023-03-18T13:06:01.763Z,14.6
2023-03-18T13:07:01.095Z,14.6
2023-03-18T13:08:11.333Z,14.6
2023-03-18T13:09:01.570Z,14.6
2023-03-18T13:10:01.592Z,14.6
2023-03-18T13:11:01.157Z,14.6
2023-03-18T13:12:02.068Z,14.6
2023-03-18T13:13:13.972Z,14.6
2023-03-18T13:14:01.273Z,14.6
2023-03-18T13:15:01.196Z,14.6
2023-03-18T13:16:01.136Z,14.6
2023-03-18T13:17:01.242Z,14.7
2023-03-18T13:18:16.293Z,14.7
2023-03-18T13:19:02.480Z,14.6
2023-03-18T13:20:02.191Z,14.7
2023-03-18T13:21:01.121Z,14.6
2023-03-18T13:22:01.090Z,14.6
2023-03-18T13:23:01.096Z,14.6
2023-03-18T13:24:01.182Z,14.6
2023-03-18T13:25:01.252Z,14.6
2023-03-18T13:26:01.365Z,14.6
2023-03-18T13:27:02.225Z,14.6
2023-03-18T13:28:02.135Z,14.6
2023-03-18T13:29:01.929Z,14.6
2023-03-18T13:30:01.122Z,14.6
2023-03-18T13:31:01.176Z,14.6
2023-03-18T13:32:01.151Z,14.6
2023-03-18T13:33:02.013Z,14.6
2023-03-18T13:34:01.540Z,14.6
2023-03-18T13:35:01.457Z,14.6
2023-03-18T13:36:02.224Z,14.6
2023-03-18T13:37:01.239Z,14.6
2023-03-18T13:38:01.090Z,14.7
2023-03-18T13:39:00.792Z,14.7
2023-03-18T13:40:00.501Z,14.7
2023-03-18T13:41:00.135Z,14.7
2023-03-18T13:41:59.826Z,14.7
2023-03-18T13:43:01.501Z,14.8